West Valley, NY (14171)

1:21 PM EDT on October 24, 2014 (GMT -0400)
Top of Zoar Valley | Change Station
CLOSE
Current Station
Personal Weather Station
Location: Springville, NY
Elevation: 1427 ft
Nearby Weather Stations

Elev 1427 ft 42.50 °N, 78.78 °W | Updated 3 seconds ago

Clear
Clear
53.8 °F
Feels Like 53.8 °F
N
9.2
Wind Variable Wind from West
Gusts 11.4 mph

Today
High -- | Low -- °F
--% Chance of Precip.
Yesterday
High -- | Low -- °F
Precip. -- in
7:38 AM 6:18 PM
New Moon, 1% visible
Pressure 29.98 in
Visibility 10.0 miles
Clouds Clear
Dew Point 46 °F
Humidity 75%
Rainfall 0.00 in
Snow Depth Not available.
UV 4 out of 12
Pollen 1.10 out of 12
Ozone Good
PM2.5 Good
Flu Activity Sporadic
METAR KOLE 241715Z AUTO 30007G14KT 270V340 10SM CLR 11/00 A2998 RMK AO2

More Conditions Fewer Conditions

Pressure 29.98 in
Visibility 10.0 miles
Clouds Clear
Dew Point 46 °F
Humidity 75%
Rainfall 0.00 in
Snow Depth Not available.
UV 4 out of 12
Pollen 1.10 out of 12
Ozone Good
PM2.5 Good
Flu Activity Sporadic
METAR KOLE 241715Z AUTO 30007G14KT 270V340 10SM CLR 11/00 A2998 RMK AO2

More Conditions Fewer Conditions

10-Day Weather Forecast

Almanac

Astronomy

Oct. 24, 2014 Rise Set
Actual Time 7:38 AM EDT 6:18 PM EDT
Civil Twilight 7:09 AM EDT 6:47 PM EDT
Nautical Twilight 6:36 AM EDT 7:20 PM EDT
Astronomical Twilight 6:03 AM EDT 7:52 PM EDT
Moon 8:15 AM EDT 6:56 PM EDT
Length of Visible Light 11h 38m
Length of Day
10h 40m
Tomorrow will be 2m 40s shorter.
New Moon, 1% of the Moon is Illuminated
Today
New Moon
Oct 30
First Quarter
Nov 6
Full
Nov 14
Last Quarter
Nov 22
New

Today's Extremes

State Highs State Lows

Community

WunderPhotos

Upload Photos

1,764,620 photos uploaded!

WunderBlogs® & News

Nearby

Air Quality

  Air Quality AQ Index Pollutant
Yesterday Good
OZONE
Yesterday Good
PM2.5
Current Good
PM2.5
Current Good
OZONE
Friday Good
PM2.5

Snow Depth

Station Depth Elevation
No new snow has been reported.

Earthquake Activity

City Distance Mag. Time & Date
No recent earthquake activity has been reported nearby.
Minimum magnitude displayed is 2.5.

Coastal Water Temperatures

Place Temperature
Buffalo, NY 57.0 °F

Nearby Weather Stations